sensor_id;sensor_type;location;lat;lon;timestamp;P1;durP1;ratioP1;P2;durP2;ratioP2
1682;SDS011;13252;53.596;10.060;2023-02-22T00:01:31;29.13;;;19.27;;
1682;SDS011;13252;53.596;10.060;2023-02-22T00:04:04;27.80;;;18.33;;
1682;SDS011;13252;53.596;10.060;2023-02-22T00:06:32;28.90;;;17.90;;
1682;SDS011;13252;53.596;10.060;2023-02-22T00:09:00;28.33;;;16.20;;
1682;SDS011;13252;53.596;10.060;2023-02-22T00:11:28;31.13;;;15.60;;
1682;SDS011;13252;53.596;10.060;2023-02-22T00:13:56;31.80;;;13.60;;
1682;SDS011;13252;53.596;10.060;2023-02-22T00:16:24;33.80;;;13.53;;
1682;SDS011;13252;53.596;10.060;2023-02-22T00:18:52;24.87;;;12.80;;
1682;SDS011;13252;53.596;10.060;2023-02-22T00:21:21;34.50;;;14.03;;
1682;SDS011;13252;53.596;10.060;2023-02-22T00:23:49;23.20;;;13.13;;
1682;SDS011;13252;53.596;10.060;2023-02-22T00:26:20;30.27;;;13.67;;
1682;SDS011;13252;53.596;10.060;2023-02-22T00:28:49;27.57;;;12.60;;
1682;SDS011;13252;53.596;10.060;2023-02-22T00:31:18;25.63;;;13.37;;
1682;SDS011;13252;53.596;10.060;2023-02-22T00:33:47;31.30;;;13.77;;
1682;SDS011;13252;53.596;10.060;2023-02-22T00:36:15;32.47;;;13.67;;
1682;SDS011;13252;53.596;10.060;2023-02-22T00:38:44;34.70;;;16.73;;
1682;SDS011;13252;53.596;10.060;2023-02-22T00:41:13;29.87;;;13.33;;
1682;SDS011;13252;53.596;10.060;2023-02-22T00:43:41;39.27;;;16.73;;
1682;SDS011;13252;53.596;10.060;2023-02-22T00:46:12;39.87;;;15.83;;
1682;SDS011;13252;53.596;10.060;2023-02-22T00:48:39;30.43;;;14.27;;
1682;SDS011;13252;53.596;10.060;2023-02-22T00:51:07;42.80;;;16.00;;
1682;SDS011;13252;53.596;10.060;2023-02-22T00:53:34;39.87;;;15.87;;
1682;SDS011;13252;53.596;10.060;2023-02-22T00:56:04;45.87;;;15.47;;
1682;SDS011;13252;53.596;10.060;2023-02-22T00:58:32;37.53;;;14.37;;
1682;SDS011;13252;53.596;10.060;2023-02-22T01:00:59;34.77;;;13.87;;
1682;SDS011;13252;53.596;10.060;2023-02-22T01:03:27;39.73;;;14.30;;
1682;SDS011;13252;53.596;10.060;2023-02-22T01:05:57;43.63;;;15.30;;
1682;SDS011;13252;53.596;10.060;2023-02-22T01:08:24;48.90;;;16.27;;
1682;SDS011;13252;53.596;10.060;2023-02-22T01:10:55;48.07;;;16.00;;
1682;SDS011;13252;53.596;10.060;2023-02-22T01:13:25;42.97;;;18.43;;
1682;SDS011;13252;53.596;10.060;2023-02-22T01:15:53;42.23;;;17.90;;
1682;SDS011;13252;53.596;10.060;2023-02-22T01:18:21;44.67;;;17.10;;
1682;SDS011;13252;53.596;10.060;2023-02-22T01:20:51;41.40;;;17.10;;
1682;SDS011;13252;53.596;10.060;2023-02-22T01:23:18;38.37;;;17.40;;
1682;SDS011;13252;53.596;10.060;2023-02-22T01:25:46;38.20;;;17.67;;
1682;SDS011;13252;53.596;10.060;2023-02-22T01:28:14;55.40;;;18.83;;
1682;SDS011;13252;53.596;10.060;2023-02-22T01:30:44;50.37;;;17.47;;
1682;SDS011;13252;53.596;10.060;2023-02-22T01:33:11;40.70;;;16.43;;
1682;SDS011;13252;53.596;10.060;2023-02-22T01:35:41;46.40;;;17.90;;
1682;SDS011;13252;53.596;10.060;2023-02-22T01:38:15;54.83;;;17.90;;
1682;SDS011;13252;53.596;10.060;2023-02-22T01:40:49;45.83;;;16.83;;
1682;SDS011;13252;53.596;10.060;2023-02-22T01:43:19;46.53;;;16.73;;
1682;SDS011;13252;53.596;10.060;2023-02-22T01:45:57;55.47;;;17.63;;
1682;SDS011;13252;53.596;10.060;2023-02-22T01:48:31;46.13;;;17.10;;
1682;SDS011;13252;53.596;10.060;2023-02-22T01:51:03;47.37;;;16.97;;
1682;SDS011;13252;53.596;10.060;2023-02-22T01:53:37;49.57;;;17.60;;
1682;SDS011;13252;53.596;10.060;2023-02-22T01:56:08;54.07;;;17.57;;
1682;SDS011;13252;53.596;10.060;2023-02-22T01:58:36;56.97;;;17.13;;
1682;SDS011;13252;53.596;10.060;2023-02-22T02:01:06;54.23;;;19.33;;
1682;SDS011;13252;53.596;10.060;2023-02-22T02:03:35;55.83;;;16.90;;
1682;SDS011;13252;53.596;10.060;2023-02-22T02:06:05;39.17;;;15.53;;
1682;SDS011;13252;53.596;10.060;2023-02-22T02:08:38;42.73;;;16.17;;
1682;SDS011;13252;53.596;10.060;2023-02-22T02:11:15;50.10;;;19.10;;
1682;SDS011;13252;53.596;10.060;2023-02-22T02:13:45;40.80;;;16.20;;
1682;SDS011;13252;53.596;10.060;2023-02-22T02:16:14;49.70;;;17.43;;
1682;SDS011;13252;53.596;10.060;2023-02-22T02:18:43;62.47;;;17.73;;
1682;SDS011;13252;53.596;10.060;2023-02-22T02:21:21;61.97;;;20.30;;
1682;SDS011;13252;53.596;10.060;2023-02-22T02:27:18;62.30;;;17.53;;
1682;SDS011;13252;53.596;10.060;2023-02-22T02:33:02;56.10;;;18.60;;
1682;SDS011;13252;53.596;10.060;2023-02-22T02:35:36;66.03;;;18.60;;
1682;SDS011;13252;53.596;10.060;2023-02-22T02:38:10;50.90;;;18.57;;
1682;SDS011;13252;53.596;10.060;2023-02-22T02:40:47;60.03;;;19.27;;
1682;SDS011;13252;53.596;10.060;2023-02-22T02:43:20;56.87;;;20.00;;
1682;SDS011;13252;53.596;10.060;2023-02-22T02:45:53;61.63;;;21.47;;
1682;SDS011;13252;53.596;10.060;2023-02-22T02:48:25;52.10;;;20.07;;
1682;SDS011;13252;53.596;10.060;2023-02-22T02:50:55;56.53;;;19.97;;
1682;SDS011;13252;53.596;10.060;2023-02-22T02:53:29;52.10;;;19.00;;
1682;SDS011;13252;53.596;10.060;2023-02-22T02:56:00;43.53;;;19.00;;
1682;SDS011;13252;53.596;10.060;2023-02-22T02:58:28;43.00;;;18.87;;
1682;SDS011;13252;53.596;10.060;2023-02-22T03:00:57;45.73;;;19.30;;
1682;SDS011;13252;53.596;10.060;2023-02-22T03:03:33;58.80;;;20.53;;
1682;SDS011;13252;53.596;10.060;2023-02-22T03:06:15;42.33;;;19.47;;
1682;SDS011;13252;53.596;10.060;2023-02-22T03:08:52;45.90;;;20.10;;
1682;SDS011;13252;53.596;10.060;2023-02-22T03:11:24;40.57;;;18.50;;
1682;SDS011;13252;53.596;10.060;2023-02-22T03:13:57;51.67;;;20.47;;
1682;SDS011;13252;53.596;10.060;2023-02-22T03:16:29;36.17;;;18.97;;
1682;SDS011;13252;53.596;10.060;2023-02-22T03:19:03;47.83;;;17.17;;
1682;SDS011;13252;53.596;10.060;2023-02-22T03:21:37;55.77;;;19.47;;
1682;SDS011;13252;53.596;10.060;2023-02-22T03:24:10;37.00;;;18.07;;
1682;SDS011;13252;53.596;10.060;2023-02-22T03:26:45;46.33;;;20.17;;
1682;SDS011;13252;53.596;10.060;2023-02-22T03:29:16;38.07;;;18.13;;
1682;SDS011;13252;53.596;10.060;2023-02-22T03:31:45;35.60;;;17.37;;
1682;SDS011;13252;53.596;10.060;2023-02-22T03:34:22;31.33;;;16.77;;
1682;SDS011;13252;53.596;10.060;2023-02-22T03:36:53;36.20;;;17.07;;
1682;SDS011;13252;53.596;10.060;2023-02-22T03:39:25;41.20;;;17.17;;
1682;SDS011;13252;53.596;10.060;2023-02-22T03:41:59;41.00;;;17.90;;
1682;SDS011;13252;53.596;10.060;2023-02-22T03:44:31;38.47;;;16.13;;
1682;SDS011;13252;53.596;10.060;2023-02-22T03:47:01;37.00;;;19.13;;
1682;SDS011;13252;53.596;10.060;2023-02-22T03:49:34;37.30;;;16.97;;
1682;SDS011;13252;53.596;10.060;2023-02-22T03:52:05;42.80;;;17.27;;
1682;SDS011;13252;53.596;10.060;2023-02-22T03:54:35;38.17;;;15.97;;
1682;SDS011;13252;53.596;10.060;2023-02-22T03:57:03;29.67;;;15.93;;
1682;SDS011;13252;53.596;10.060;2023-02-22T03:59:37;26.27;;;14.00;;
1682;SDS011;13252;53.596;10.060;2023-02-22T04:02:05;27.93;;;16.20;;
1682;SDS011;13252;53.596;10.060;2023-02-22T04:04:34;29.87;;;15.73;;
1682;SDS011;13252;53.596;10.060;2023-02-22T04:07:02;36.47;;;16.47;;
1682;SDS011;13252;53.596;10.060;2023-02-22T04:09:31;26.03;;;14.83;;
1682;SDS011;13252;53.596;10.060;2023-02-22T04:12:00;28.70;;;16.00;;
1682;SDS011;13252;53.596;10.060;2023-02-22T04:14:30;26.47;;;15.77;;
1682;SDS011;13252;53.596;10.060;2023-02-22T04:17:00;31.77;;;14.30;;
1682;SDS011;13252;53.596;10.060;2023-02-22T04:19:27;28.37;;;15.00;;
1682;SDS011;13252;53.596;10.060;2023-02-22T04:21:56;28.90;;;14.97;;
1682;SDS011;13252;53.596;10.060;2023-02-22T04:24:24;31.07;;;15.50;;
1682;SDS011;13252;53.596;10.060;2023-02-22T04:26:54;29.10;;;15.63;;
1682;SDS011;13252;53.596;10.060;2023-02-22T04:29:22;30.23;;;14.80;;
1682;SDS011;13252;53.596;10.060;2023-02-22T04:31:50;27.23;;;15.00;;
1682;SDS011;13252;53.596;10.060;2023-02-22T04:34:18;34.13;;;15.60;;
1682;SDS011;13252;53.596;10.060;2023-02-22T04:36:47;23.17;;;13.70;;
1682;SDS011;13252;53.596;10.060;2023-02-22T04:39:16;28.80;;;15.27;;
1682;SDS011;13252;53.596;10.060;2023-02-22T04:41:44;35.13;;;16.77;;
1682;SDS011;13252;53.596;10.060;2023-02-22T04:44:12;27.97;;;15.20;;
1682;SDS011;13252;53.596;10.060;2023-02-22T04:46:40;32.63;;;16.00;;
1682;SDS011;13252;53.596;10.060;2023-02-22T04:49:12;27.80;;;16.07;;
1682;SDS011;13252;53.596;10.060;2023-02-22T04:51:41;26.50;;;15.67;;
1682;SDS011;13252;53.596;10.060;2023-02-22T04:54:11;29.00;;;15.83;;
1682;SDS011;13252;53.596;10.060;2023-02-22T04:56:46;38.77;;;17.50;;
1682;SDS011;13252;53.596;10.060;2023-02-22T04:59:14;29.33;;;15.40;;
1682;SDS011;13252;53.596;10.060;2023-02-22T05:01:45;31.93;;;17.37;;
1682;SDS011;13252;53.596;10.060;2023-02-22T05:04:13;33.97;;;15.50;;
1682;SDS011;13252;53.596;10.060;2023-02-22T05:06:41;34.90;;;18.93;;
1682;SDS011;13252;53.596;10.060;2023-02-22T05:09:08;30.37;;;17.47;;
1682;SDS011;13252;53.596;10.060;2023-02-22T05:11:36;30.97;;;17.30;;
1682;SDS011;13252;53.596;10.060;2023-02-22T05:14:05;31.40;;;18.13;;
1682;SDS011;13252;53.596;10.060;2023-02-22T05:16:33;37.60;;;19.10;;
1682;SDS011;13252;53.596;10.060;2023-02-22T05:19:01;33.80;;;19.20;;
1682;SDS011;13252;53.596;10.060;2023-02-22T05:21:28;39.33;;;18.00;;
1682;SDS011;13252;53.596;10.060;2023-02-22T05:23:56;38.37;;;18.23;;
1682;SDS011;13252;53.596;10.060;2023-02-22T05:26:24;32.37;;;18.60;;
1682;SDS011;13252;53.596;10.060;2023-02-22T05:28:51;33.23;;;18.80;;
1682;SDS011;13252;53.596;10.060;2023-02-22T05:31:20;30.70;;;17.97;;
1682;SDS011;13252;53.596;10.060;2023-02-22T05:33:48;33.83;;;18.90;;
1682;SDS011;13252;53.596;10.060;2023-02-22T05:36:16;37.07;;;19.37;;
1682;SDS011;13252;53.596;10.060;2023-02-22T05:38:43;38.33;;;20.53;;
1682;SDS011;13252;53.596;10.060;2023-02-22T05:41:11;34.07;;;18.97;;
1682;SDS011;13252;53.596;10.060;2023-02-22T05:43:40;39.53;;;20.40;;
1682;SDS011;13252;53.596;10.060;2023-02-22T05:46:08;44.90;;;20.67;;
1682;SDS011;13252;53.596;10.060;2023-02-22T05:48:37;37.60;;;18.60;;
1682;SDS011;13252;53.596;10.060;2023-02-22T05:51:05;43.23;;;20.63;;
1682;SDS011;13252;53.596;10.060;2023-02-22T05:53:35;44.40;;;23.77;;
1682;SDS011;13252;53.596;10.060;2023-02-22T05:56:03;44.23;;;21.50;;
1682;SDS011;13252;53.596;10.060;2023-02-22T05:58:31;41.30;;;20.90;;
1682;SDS011;13252;53.596;10.060;2023-02-22T06:00:59;45.33;;;20.90;;
1682;SDS011;13252;53.596;10.060;2023-02-22T06:03:42;34.77;;;17.97;;
1682;SDS011;13252;53.596;10.060;2023-02-22T06:06:09;49.70;;;21.27;;
1682;SDS011;13252;53.596;10.060;2023-02-22T06:08:37;36.40;;;19.70;;
1682;SDS011;13252;53.596;10.060;2023-02-22T06:11:05;43.30;;;18.90;;
1682;SDS011;13252;53.596;10.060;2023-02-22T06:13:35;40.63;;;18.53;;
1682;SDS011;13252;53.596;10.060;2023-02-22T06:16:03;36.47;;;18.03;;
1682;SDS011;13252;53.596;10.060;2023-02-22T06:18:32;40.00;;;19.20;;
1682;SDS011;13252;53.596;10.060;2023-02-22T06:21:01;48.70;;;20.93;;
1682;SDS011;13252;53.596;10.060;2023-02-22T06:23:29;41.20;;;18.70;;
1682;SDS011;13252;53.596;10.060;2023-02-22T06:25:57;45.10;;;18.53;;
1682;SDS011;13252;53.596;10.060;2023-02-22T06:28:24;43.70;;;18.70;;
1682;SDS011;13252;53.596;10.060;2023-02-22T06:30:52;43.67;;;18.37;;
1682;SDS011;13252;53.596;10.060;2023-02-22T06:33:20;39.20;;;18.47;;
1682;SDS011;13252;53.596;10.060;2023-02-22T06:35:47;44.93;;;19.93;;
1682;SDS011;13252;53.596;10.060;2023-02-22T06:38:20;46.27;;;19.13;;
1682;SDS011;13252;53.596;10.060;2023-02-22T06:40:50;55.27;;;19.97;;
1682;SDS011;13252;53.596;10.060;2023-02-22T06:43:18;57.80;;;22.47;;
1682;SDS011;13252;53.596;10.060;2023-02-22T06:45:46;52.93;;;20.33;;
1682;SDS011;13252;53.596;10.060;2023-02-22T06:48:13;55.17;;;20.80;;
1682;SDS011;13252;53.596;10.060;2023-02-22T06:50:41;49.37;;;21.47;;
1682;SDS011;13252;53.596;10.060;2023-02-22T06:53:09;52.13;;;19.97;;
1682;SDS011;13252;53.596;10.060;2023-02-22T06:55:38;57.60;;;21.97;;
1682;SDS011;13252;53.596;10.060;2023-02-22T06:58:06;54.07;;;21.20;;
1682;SDS011;13252;53.596;10.060;2023-02-22T07:00:33;54.83;;;22.70;;
1682;SDS011;13252;53.596;10.060;2023-02-22T07:03:04;55.10;;;22.60;;
1682;SDS011;13252;53.596;10.060;2023-02-22T07:05:31;47.13;;;21.43;;
1682;SDS011;13252;53.596;10.060;2023-02-22T07:08:03;50.83;;;23.00;;
1682;SDS011;13252;53.596;10.060;2023-02-22T07:10:32;61.30;;;22.80;;
1682;SDS011;13252;53.596;10.060;2023-02-22T07:13:02;54.53;;;22.50;;
1682;SDS011;13252;53.596;10.060;2023-02-22T07:15:31;54.00;;;21.90;;
1682;SDS011;13252;53.596;10.060;2023-02-22T07:18:00;62.23;;;23.73;;
1682;SDS011;13252;53.596;10.060;2023-02-22T07:20:28;53.07;;;22.47;;
1682;SDS011;13252;53.596;10.060;2023-02-22T07:22:56;54.63;;;22.47;;
1682;SDS011;13252;53.596;10.060;2023-02-22T07:25:24;59.63;;;23.03;;
1682;SDS011;13252;53.596;10.060;2023-02-22T07:27:52;56.30;;;22.90;;
1682;SDS011;13252;53.596;10.060;2023-02-22T07:30:22;60.03;;;25.53;;
1682;SDS011;13252;53.596;10.060;2023-02-22T07:32:52;47.40;;;21.53;;
1682;SDS011;13252;53.596;10.060;2023-02-22T07:35:22;58.97;;;24.30;;
1682;SDS011;13252;53.596;10.060;2023-02-22T07:37:50;59.13;;;25.00;;
1682;SDS011;13252;53.596;10.060;2023-02-22T07:40:21;55.97;;;23.03;;
1682;SDS011;13252;53.596;10.060;2023-02-22T07:42:50;57.73;;;24.23;;
1682;SDS011;13252;53.596;10.060;2023-02-22T07:45:20;52.03;;;24.47;;
1682;SDS011;13252;53.596;10.060;2023-02-22T07:47:49;46.80;;;22.13;;
1682;SDS011;13252;53.596;10.060;2023-02-22T07:50:18;55.60;;;21.63;;
1682;SDS011;13252;53.596;10.060;2023-02-22T07:52:47;48.90;;;22.00;;
1682;SDS011;13252;53.596;10.060;2023-02-22T07:55:16;47.17;;;22.30;;
1682;SDS011;13252;53.596;10.060;2023-02-22T07:57:46;46.90;;;23.03;;
1682;SDS011;13252;53.596;10.060;2023-02-22T08:00:14;44.90;;;21.33;;
1682;SDS011;13252;53.596;10.060;2023-02-22T08:02:50;50.83;;;23.60;;
1682;SDS011;13252;53.596;10.060;2023-02-22T08:05:18;38.90;;;20.03;;
1682;SDS011;13252;53.596;10.060;2023-02-22T08:07:46;44.77;;;21.50;;
1682;SDS011;13252;53.596;10.060;2023-02-22T08:10:14;37.90;;;19.20;;
1682;SDS011;13252;53.596;10.060;2023-02-22T08:12:42;36.00;;;20.30;;
1682;SDS011;13252;53.596;10.060;2023-02-22T08:15:14;39.27;;;19.90;;
1682;SDS011;13252;53.596;10.060;2023-02-22T08:17:44;38.77;;;20.20;;
1682;SDS011;13252;53.596;10.060;2023-02-22T08:20:12;39.97;;;20.47;;
1682;SDS011;13252;53.596;10.060;2023-02-22T08:22:41;38.00;;;20.50;;
1682;SDS011;13252;53.596;10.060;2023-02-22T08:25:09;40.63;;;21.57;;
1682;SDS011;13252;53.596;10.060;2023-02-22T08:27:37;36.80;;;19.70;;
1682;SDS011;13252;53.596;10.060;2023-02-22T08:30:05;34.20;;;19.50;;
1682;SDS011;13252;53.596;10.060;2023-02-22T08:32:34;35.23;;;18.30;;
1682;SDS011;13252;53.596;10.060;2023-02-22T08:35:04;39.47;;;19.43;;
1682;SDS011;13252;53.596;10.060;2023-02-22T08:37:33;39.23;;;21.13;;
1682;SDS011;13252;53.596;10.060;2023-02-22T08:40:01;33.30;;;19.37;;
1682;SDS011;13252;53.596;10.060;2023-02-22T08:42:29;31.20;;;18.53;;
1682;SDS011;13252;53.596;10.060;2023-02-22T08:44:57;33.27;;;19.17;;
1682;SDS011;13252;53.596;10.060;2023-02-22T08:47:25;37.90;;;20.70;;
1682;SDS011;13252;53.596;10.060;2023-02-22T08:49:53;38.37;;;21.27;;
1682;SDS011;13252;53.596;10.060;2023-02-22T08:52:23;33.73;;;20.27;;
1682;SDS011;13252;53.596;10.060;2023-02-22T08:54:50;32.93;;;19.73;;
1682;SDS011;13252;53.596;10.060;2023-02-22T08:57:18;32.97;;;19.77;;
1682;SDS011;13252;53.596;10.060;2023-02-22T08:59:47;32.37;;;19.50;;
1682;SDS011;13252;53.596;10.060;2023-02-22T09:02:15;31.33;;;19.10;;
1682;SDS011;13252;53.596;10.060;2023-02-22T09:04:48;34.87;;;21.53;;
1682;SDS011;13252;53.596;10.060;2023-02-22T09:07:16;32.57;;;20.00;;
1682;SDS011;13252;53.596;10.060;2023-02-22T09:09:45;34.50;;;21.23;;
1682;SDS011;13252;53.596;10.060;2023-02-22T09:12:13;35.57;;;20.23;;
1682;SDS011;13252;53.596;10.060;2023-02-22T09:14:43;39.50;;;19.73;;
1682;SDS011;13252;53.596;10.060;2023-02-22T09:17:10;32.50;;;19.93;;
1682;SDS011;13252;53.596;10.060;2023-02-22T09:19:38;34.07;;;20.23;;
1682;SDS011;13252;53.596;10.060;2023-02-22T09:22:06;37.00;;;21.70;;
1682;SDS011;13252;53.596;10.060;2023-02-22T09:24:33;34.13;;;19.60;;
1682;SDS011;13252;53.596;10.060;2023-02-22T09:27:06;36.23;;;19.63;;
1682;SDS011;13252;53.596;10.060;2023-02-22T09:29:41;32.03;;;20.10;;
1682;SDS011;13252;53.596;10.060;2023-02-22T09:32:10;35.40;;;19.50;;
1682;SDS011;13252;53.596;10.060;2023-02-22T09:34:41;31.70;;;19.90;;
1682;SDS011;13252;53.596;10.060;2023-02-22T09:37:13;33.57;;;19.67;;
1682;SDS011;13252;53.596;10.060;2023-02-22T09:39:42;33.13;;;19.30;;
1682;SDS011;13252;53.596;10.060;2023-02-22T09:42:15;33.17;;;21.13;;
1682;SDS011;13252;53.596;10.060;2023-02-22T09:44:48;32.27;;;20.20;;
1682;SDS011;13252;53.596;10.060;2023-02-22T09:47:19;34.43;;;19.27;;
1682;SDS011;13252;53.596;10.060;2023-02-22T09:49:59;29.50;;;17.30;;
1682;SDS011;13252;53.596;10.060;2023-02-22T09:52:31;32.57;;;19.23;;
1682;SDS011;13252;53.596;10.060;2023-02-22T09:55:04;33.40;;;19.93;;
1682;SDS011;13252;53.596;10.060;2023-02-22T09:57:37;37.07;;;17.30;;
1682;SDS011;13252;53.596;10.060;2023-02-22T10:00:11;32.50;;;17.07;;
1682;SDS011;13252;53.596;10.060;2023-02-22T10:02:43;27.50;;;17.10;;
1682;SDS011;13252;53.596;10.060;2023-02-22T10:05:16;32.47;;;18.17;;
1682;SDS011;13252;53.596;10.060;2023-02-22T10:07:50;31.73;;;18.13;;
1682;SDS011;13252;53.596;10.060;2023-02-22T10:10:21;34.47;;;18.17;;
1682;SDS011;13252;53.596;10.060;2023-02-22T10:12:53;35.47;;;17.30;;
1682;SDS011;13252;53.596;10.060;2023-02-22T10:15:28;31.20;;;19.30;;
1682;SDS011;13252;53.596;10.060;2023-02-22T10:18:02;26.13;;;18.10;;
1682;SDS011;13252;53.596;10.060;2023-02-22T10:20:41;31.60;;;16.70;;
1682;SDS011;13252;53.596;10.060;2023-02-22T10:23:16;29.70;;;18.20;;
1682;SDS011;13252;53.596;10.060;2023-02-22T10:25:50;27.93;;;17.10;;
1682;SDS011;13252;53.596;10.060;2023-02-22T10:28:24;30.53;;;17.70;;
1682;SDS011;13252;53.596;10.060;2023-02-22T10:30:56;27.30;;;17.60;;
1682;SDS011;13252;53.596;10.060;2023-02-22T10:33:26;27.40;;;17.53;;
1682;SDS011;13252;53.596;10.060;2023-02-22T10:35:56;29.13;;;16.73;;
1682;SDS011;13252;53.596;10.060;2023-02-22T10:38:26;30.60;;;17.27;;
1682;SDS011;13252;53.596;10.060;2023-02-22T10:40:55;25.97;;;16.03;;
1682;SDS011;13252;53.596;10.060;2023-02-22T10:43:26;26.80;;;16.00;;
1682;SDS011;13252;53.596;10.060;2023-02-22T10:45:55;25.83;;;16.23;;
1682;SDS011;13252;53.596;10.060;2023-02-22T10:48:26;27.17;;;15.77;;
1682;SDS011;13252;53.596;10.060;2023-02-22T10:50:57;24.10;;;16.60;;
1682;SDS011;13252;53.596;10.060;2023-02-22T10:53:28;27.00;;;17.17;;
1682;SDS011;13252;53.596;10.060;2023-02-22T10:56:10;26.97;;;17.67;;
1682;SDS011;13252;53.596;10.060;2023-02-22T10:58:50;25.90;;;16.90;;
1682;SDS011;13252;53.596;10.060;2023-02-22T11:01:21;27.90;;;18.07;;
1682;SDS011;13252;53.596;10.060;2023-02-22T11:03:55;24.97;;;15.23;;
1682;SDS011;13252;53.596;10.060;2023-02-22T11:06:24;25.37;;;16.33;;
1682;SDS011;13252;53.596;10.060;2023-02-22T11:09:00;26.00;;;16.83;;
1682;SDS011;13252;53.596;10.060;2023-02-22T11:11:31;25.73;;;17.20;;
1682;SDS011;13252;53.596;10.060;2023-02-22T11:14:01;28.57;;;19.60;;
1682;SDS011;13252;53.596;10.060;2023-02-22T11:16:32;27.27;;;18.50;;
1682;SDS011;13252;53.596;10.060;2023-02-22T11:19:06;26.80;;;18.30;;
1682;SDS011;13252;53.596;10.060;2023-02-22T11:21:39;22.87;;;16.60;;
1682;SDS011;13252;53.596;10.060;2023-02-22T11:24:07;23.97;;;17.10;;
1682;SDS011;13252;53.596;10.060;2023-02-22T11:26:37;23.50;;;17.50;;
1682;SDS011;13252;53.596;10.060;2023-02-22T11:29:12;25.13;;;17.73;;
1682;SDS011;13252;53.596;10.060;2023-02-22T11:31:44;25.47;;;17.50;;
1682;SDS011;13252;53.596;10.060;2023-02-22T11:34:24;26.10;;;18.20;;
1682;SDS011;13252;53.596;10.060;2023-02-22T11:36:54;31.17;;;18.83;;
1682;SDS011;13252;53.596;10.060;2023-02-22T11:39:23;28.20;;;18.97;;
1682;SDS011;13252;53.596;10.060;2023-02-22T11:41:52;20.40;;;14.47;;
1682;SDS011;13252;53.596;10.060;2023-02-22T11:44:23;21.90;;;16.30;;
1682;SDS011;13252;53.596;10.060;2023-02-22T11:46:52;21.70;;;16.00;;
1682;SDS011;13252;53.596;10.060;2023-02-22T11:49:22;25.70;;;17.77;;
1682;SDS011;13252;53.596;10.060;2023-02-22T11:51:58;20.07;;;14.77;;
1682;SDS011;13252;53.596;10.060;2023-02-22T11:54:38;26.70;;;17.60;;
1682;SDS011;13252;53.596;10.060;2023-02-22T11:57:18;24.40;;;15.60;;
1682;SDS011;13252;53.596;10.060;2023-02-22T11:59:58;24.90;;;15.00;;
1682;SDS011;13252;53.596;10.060;2023-02-22T12:02:41;23.83;;;15.50;;
1682;SDS011;13252;53.596;10.060;2023-02-22T12:05:24;18.97;;;14.17;;
1682;SDS011;13252;53.596;10.060;2023-02-22T12:07:59;22.20;;;14.90;;
1682;SDS011;13252;53.596;10.060;2023-02-22T12:10:47;22.07;;;15.70;;
1682;SDS011;13252;53.596;10.060;2023-02-22T12:13:25;21.30;;;15.70;;
1682;SDS011;13252;53.596;10.060;2023-02-22T12:16:01;23.90;;;16.23;;
1682;SDS011;13252;53.596;10.060;2023-02-22T12:18:33;24.87;;;16.33;;
1682;SDS011;13252;53.596;10.060;2023-02-22T12:21:06;23.60;;;15.50;;
1682;SDS011;13252;53.596;10.060;2023-02-22T12:23:38;19.10;;;15.47;;
1682;SDS011;13252;53.596;10.060;2023-02-22T12:26:12;20.50;;;15.60;;
1682;SDS011;13252;53.596;10.060;2023-02-22T12:28:42;24.40;;;16.67;;
1682;SDS011;13252;53.596;10.060;2023-02-22T12:31:17;22.53;;;15.90;;
1682;SDS011;13252;53.596;10.060;2023-02-22T12:33:50;20.83;;;16.47;;
1682;SDS011;13252;53.596;10.060;2023-02-22T12:36:23;20.77;;;15.60;;
1682;SDS011;13252;53.596;10.060;2023-02-22T12:38:53;22.87;;;13.63;;
1682;SDS011;13252;53.596;10.060;2023-02-22T12:41:24;21.90;;;14.77;;
1682;SDS011;13252;53.596;10.060;2023-02-22T12:43:56;19.63;;;14.20;;
1682;SDS011;13252;53.596;10.060;2023-02-22T12:46:29;19.90;;;14.93;;
1682;SDS011;13252;53.596;10.060;2023-02-22T12:49:02;19.97;;;15.87;;
1682;SDS011;13252;53.596;10.060;2023-02-22T12:51:37;20.70;;;15.77;;
1682;SDS011;13252;53.596;10.060;2023-02-22T12:54:09;20.83;;;15.50;;
1682;SDS011;13252;53.596;10.060;2023-02-22T12:56:41;22.43;;;15.23;;
1682;SDS011;13252;53.596;10.060;2023-02-22T12:59:13;22.60;;;15.20;;
1682;SDS011;13252;53.596;10.060;2023-02-22T13:01:47;18.73;;;14.93;;
1682;SDS011;13252;53.596;10.060;2023-02-22T13:04:17;19.07;;;15.73;;
1682;SDS011;13252;53.596;10.060;2023-02-22T13:06:56;22.80;;;14.40;;
1682;SDS011;13252;53.596;10.060;2023-02-22T13:09:41;21.13;;;15.10;;
1682;SDS011;13252;53.596;10.060;2023-02-22T13:12:19;18.23;;;13.77;;
1682;SDS011;13252;53.596;10.060;2023-02-22T13:14:52;19.30;;;14.90;;
1682;SDS011;13252;53.596;10.060;2023-02-22T13:17:27;23.23;;;15.87;;
1682;SDS011;13252;53.596;10.060;2023-02-22T13:20:02;18.50;;;14.60;;
1682;SDS011;13252;53.596;10.060;2023-02-22T13:22:36;21.97;;;13.90;;
1682;SDS011;13252;53.596;10.060;2023-02-22T13:25:09;15.47;;;12.77;;
1682;SDS011;13252;53.596;10.060;2023-02-22T13:27:41;20.60;;;14.87;;
1682;SDS011;13252;53.596;10.060;2023-02-22T13:30:16;19.20;;;14.43;;
1682;SDS011;13252;53.596;10.060;2023-02-22T13:33:04;17.20;;;13.37;;
1682;SDS011;13252;53.596;10.060;2023-02-22T13:35:42;22.00;;;13.97;;
1682;SDS011;13252;53.596;10.060;2023-02-22T13:38:22;22.33;;;14.70;;
1682;SDS011;13252;53.596;10.060;2023-02-22T13:41:07;17.20;;;13.87;;
1682;SDS011;13252;53.596;10.060;2023-02-22T13:43:47;19.80;;;13.77;;
1682;SDS011;13252;53.596;10.060;2023-02-22T13:46:30;17.90;;;14.10;;
1682;SDS011;13252;53.596;10.060;2023-02-22T13:49:29;14.27;;;10.70;;
1682;SDS011;13252;53.596;10.060;2023-02-22T13:52:10;15.57;;;11.70;;
1682;SDS011;13252;53.596;10.060;2023-02-22T13:54:39;15.30;;;12.03;;
1682;SDS011;13252;53.596;10.060;2023-02-22T13:57:17;17.10;;;12.30;;
1682;SDS011;13252;53.596;10.060;2023-02-22T13:59:45;17.43;;;12.30;;
1682;SDS011;13252;53.596;10.060;2023-02-22T14:04:59;17.70;;;11.57;;
1682;SDS011;13252;53.596;10.060;2023-02-22T14:10:34;16.53;;;12.03;;
1682;SDS011;13252;53.596;10.060;2023-02-22T14:13:04;15.40;;;11.40;;
1682;SDS011;13252;53.596;10.060;2023-02-22T14:15:33;20.97;;;13.17;;
1682;SDS011;13252;53.596;10.060;2023-02-22T14:18:02;15.10;;;12.07;;
1682;SDS011;13252;53.596;10.060;2023-02-22T14:20:32;15.43;;;11.40;;
1682;SDS011;13252;53.596;10.060;2023-02-22T14:25:53;21.40;;;13.00;;
1682;SDS011;13252;53.596;10.060;2023-02-22T14:28:36;22.13;;;14.37;;
1682;SDS011;13252;53.596;10.060;2023-02-22T14:31:07;19.00;;;12.03;;
1682;SDS011;13252;53.596;10.060;2023-02-22T14:33:55;21.97;;;13.50;;
1682;SDS011;13252;53.596;10.060;2023-02-22T14:36:28;20.00;;;14.43;;
1682;SDS011;13252;53.596;10.060;2023-02-22T14:39:09;19.40;;;13.23;;
1682;SDS011;13252;53.596;10.060;2023-02-22T14:41:40;22.47;;;14.00;;
1682;SDS011;13252;53.596;10.060;2023-02-22T14:44:12;22.27;;;15.00;;
1682;SDS011;13252;53.596;10.060;2023-02-22T14:46:41;20.93;;;15.07;;
1682;SDS011;13252;53.596;10.060;2023-02-22T14:49:12;18.07;;;13.17;;
1682;SDS011;13252;53.596;10.060;2023-02-22T14:51:49;20.97;;;15.07;;
1682;SDS011;13252;53.596;10.060;2023-02-22T14:54:24;23.80;;;14.77;;
1682;SDS011;13252;53.596;10.060;2023-02-22T14:56:56;26.30;;;17.10;;
1682;SDS011;13252;53.596;10.060;2023-02-22T14:59:43;22.77;;;15.80;;